Kemah, Texas
Current Conditions -  °F | °C
As of 6:50 AM on Thursday 23 Oct 2014 (Local Time) from KEFD Reporting Station
Scattered Clouds Scattered Clouds  
Wind Chill: 63°   Ceiling: Unl
Heat Index: 63°   Visibility: 10mi
Dew Point: 59°   Wind: 5mph
Humidity: 88%   Direction: 20°NNE
Pressure: 30.09"   Gusts: NA
Location:  29.54°N, 95.02°W
Report Text: KEFD 231150Z 02004KT 10SM SCT080 SCT180 17/15 A3009
Loading
Personal Weather Stations






























Interactive Weather Map
Tropical Storm Tracking
New forecast layout! Learn more

10-Day Weather Forecast

Advertisements
Track Severe Weather on mobile